Proserpine Hamilton Isla, Australia

6:03 PM AEST on December 08, 2016 (GMT +1000)
Hamilton Island | | Change Station

Elev 16 ft 20.36 °S, 148.95 °E | Updated 33 minutes ago

Clear
Clear
82 °F
Feels Like 85 °F
N
16
Wind Variable Wind from NE

Today
High -- | Low -- °F
--% Chance of Precip.
Yesterday
High -- | Low -- °F
Precip. -- in
Pressure 29.83 in
Visibility 6.2 miles
Clouds
Heat Index 85 °F
Dew Point 68 °F
Humidity 62%
Rainfall 0.00 in
Snow Depth Not available.
5:16 AM 6:35 PM
First Quarter, 61% visible
METAR YBHM 080730Z AUTO 05014KT 9999 // NCD 28/20 Q1010
Pressure 29.83 in
Visibility 6.2 miles
Clouds
Heat Index 85 °F
Dew Point 68 °F
Humidity 62%
Rainfall 0.00 in
Snow Depth Not available.
5:16 AM 6:35 PM
First Quarter, 61% visible
METAR YBHM 080730Z AUTO 05014KT 9999 // NCD 28/20 Q1010

10-Day Weather Forecast

×

Almanac

Astronomy

Dec. 08, 2016 Rise Set
Actual Time
Civil Twilight
Nautical Twilight
Astronomical Twilight
Moon
Length of Visible Light
Length of Day
Tomorrow will be .
, % of the Moon is Illuminated

Today's Extremes

Country Highs Country Lows

Community

WunderPhotos

Upload Photos

1,956,259 photos uploaded!

WunderBlog® & News

Nearby

Air Quality

  Air Quality AQ Index Pollutant
Not available.

Snow Depth

Station Depth Elevation

Earthquake Activity

City Distance Mag. Time & Date
Minimum magnitude displayed is 2.5.

Coastal Water Temperatures

Place Temperature

Stations

Nearby Weather Stations

Station Location Temp. Windchill Dew Point Humidity Wind Precip. Elev Updated Type